📊 John's Weather Station

Last reading: 2022-01-26 08:52:22

TEMPERATURE

--

Temperature 20 readings
Min Max Average
18.81 °C 21.26 °C 19.52 °C

HUMIDITY

--

Humidity 20 readings
Min Max Average
87.13 % 89.57 % 88.6 %

View Latest 20 Readings

ID Sensor Location Temp Humid Bar Timestamp
102092 BME280 Lounge 21.26 88.12 1002.13 2022-01-26 08:52:22
102091 BME280 Lounge 20.99 88.24 1002.25 2022-01-26 08:42:46
102090 BME280 Lounge 20.88 88.41 1002.18 2022-01-26 08:33:11
102089 BME280 Lounge 20.70 88.83 1002.15 2022-01-26 08:23:34
102088 BME280 Lounge 20.39 89.36 1002.11 2022-01-26 08:13:57
102087 BME280 Lounge 20.12 89.57 1002.15 2022-01-26 08:04:23
102086 BME280 Lounge 19.57 89.57 1002.20 2022-01-26 07:54:43
102085 BME280 Lounge 19.42 89.49 1002.04 2022-01-26 07:45:07
102084 BME280 Lounge 19.23 89.39 1002.22 2022-01-26 07:35:31
102083 BME280 Lounge 19.11 89.25 1002.31 2022-01-26 07:25:54
102082 BME280 Lounge 19.00 89.08 1002.31 2022-01-26 07:16:18
102081 BME280 Lounge 18.96 88.93 1002.56 2022-01-26 07:06:42
102080 BME280 Lounge 18.91 88.72 1002.50 2022-01-26 06:57:07
102079 BME280 Lounge 18.87 88.55 1002.58 2022-01-26 06:47:30
102078 BME280 Lounge 18.85 88.32 1002.64 2022-01-26 06:37:55
102077 BME280 Lounge 18.84 88.14 1002.78 2022-01-26 06:28:19
102076 BME280 Lounge 18.82 87.90 1002.87 2022-01-26 06:18:44
102075 BME280 Lounge 18.82 87.66 1002.67 2022-01-26 06:09:08
102074 BME280 Lounge 18.81 87.41 1002.57 2022-01-26 05:59:33
102073 BME280 Lounge 18.91 87.13 1002.44 2022-01-26 05:49:57